createdAt,value
2023-04-29T00:01:03.832Z,99.90
2023-04-29T00:02:06.019Z,99.90
2023-04-29T00:03:08.603Z,99.90
2023-04-29T00:04:11.025Z,99.90
2023-04-29T00:05:15.070Z,99.90
2023-04-29T00:06:18.214Z,99.90
2023-04-29T00:07:20.557Z,99.90
2023-04-29T00:08:22.990Z,99.90
2023-04-29T00:09:25.112Z,99.90
2023-04-29T00:10:27.170Z,99.90
2023-04-29T00:11:29.291Z,99.90
2023-04-29T00:12:32.488Z,99.90
2023-04-29T00:13:34.618Z,99.90
2023-04-29T00:14:37.367Z,99.90
2023-04-29T00:15:40.292Z,99.90
2023-04-29T00:16:42.510Z,99.90
2023-04-29T00:17:45.644Z,99.90
2023-04-29T00:18:47.909Z,99.90
2023-04-29T00:19:50.878Z,99.90
2023-04-29T00:20:54.662Z,99.90
2023-04-29T00:21:56.974Z,99.90
2023-04-29T00:22:59.120Z,99.90
2023-04-29T00:24:01.496Z,99.90
2023-04-29T00:25:04.331Z,99.90
2023-04-29T00:26:06.477Z,99.90
2023-04-29T00:27:08.604Z,99.90
2023-04-29T00:28:10.910Z,99.90
2023-04-29T00:29:13.093Z,99.90
2023-04-29T00:30:15.252Z,99.90
2023-04-29T00:31:17.552Z,99.90
2023-04-29T00:32:19.767Z,99.90
2023-04-29T00:33:22.101Z,99.90
2023-04-29T00:34:24.235Z,99.90
2023-04-29T00:35:26.521Z,99.90
2023-04-29T00:36:31.929Z,99.90
2023-04-29T00:37:35.104Z,99.90
2023-04-29T00:38:37.200Z,99.90
2023-04-29T00:39:39.436Z,99.90
2023-04-29T00:40:41.714Z,99.90
2023-04-29T00:41:44.098Z,99.90
2023-04-29T00:42:46.295Z,99.90
2023-04-29T00:43:48.378Z,99.90
2023-04-29T00:44:50.534Z,99.90
2023-04-29T00:45:52.721Z,99.90
2023-04-29T00:46:54.949Z,99.90
2023-04-29T00:47:57.400Z,99.90
2023-04-29T00:49:00.433Z,99.90
2023-04-29T00:50:02.660Z,99.90
2023-04-29T00:51:05.902Z,99.90
2023-04-29T00:52:11.834Z,99.90
2023-04-29T00:53:14.453Z,99.90
2023-04-29T00:54:17.355Z,99.90
2023-04-29T00:55:20.310Z,99.90
2023-04-29T00:56:23.053Z,99.90
2023-04-29T00:57:25.676Z,99.90
2023-04-29T00:58:33.495Z,99.90
2023-04-29T00:59:36.488Z,99.90
2023-04-29T01:00:38.979Z,99.90
2023-04-29T01:01:41.595Z,99.90
2023-04-29T01:02:45.073Z,99.90
2023-04-29T01:03:47.417Z,99.90
2023-04-29T01:04:49.661Z,99.90
2023-04-29T01:06:01.826Z,99.90
2023-04-29T01:07:14.559Z,99.90
2023-04-29T01:08:28.242Z,99.90
2023-04-29T01:09:53.050Z,99.90
2023-04-29T01:11:01.639Z,99.90
2023-04-29T01:12:13.751Z,99.90
2023-04-29T01:13:23.099Z,99.90
2023-04-29T01:14:26.162Z,99.90
2023-04-29T01:15:34.907Z,99.90
2023-04-29T01:16:41.395Z,99.90
2023-04-29T01:17:50.931Z,99.90
2023-04-29T01:18:56.398Z,99.90
2023-04-29T01:20:00.836Z,99.90
2023-04-29T01:21:03.115Z,99.90
2023-04-29T01:22:05.213Z,99.90
2023-04-29T01:23:08.711Z,99.90
2023-04-29T01:24:12.231Z,99.90
2023-04-29T01:25:14.590Z,99.90
2023-04-29T01:26:17.308Z,99.90
2023-04-29T01:27:29.964Z,99.90
2023-04-29T01:28:43.251Z,99.90
2023-04-29T01:29:51.852Z,99.90
2023-04-29T01:31:01.211Z,99.90
2023-04-29T01:33:51.029Z,99.90
2023-04-29T01:34:59.895Z,99.90
2023-04-29T01:36:13.951Z,99.90
2023-04-29T01:37:22.354Z,99.90
2023-04-29T01:38:31.166Z,99.90
2023-04-29T01:39:46.967Z,99.90
2023-04-29T01:40:56.881Z,99.90
2023-04-29T01:42:06.424Z,99.90
2023-04-29T01:43:12.064Z,99.90
2023-04-29T01:44:18.698Z,99.90
2023-04-29T01:45:22.725Z,99.90
2023-04-29T01:46:24.994Z,99.90
2023-04-29T01:47:29.286Z,99.90
2023-04-29T01:48:31.893Z,99.90
2023-04-29T01:49:37.916Z,99.90
2023-04-29T01:50:40.090Z,99.90
2023-04-29T01:51:42.363Z,99.90
2023-04-29T01:52:44.457Z,99.90
2023-04-29T01:53:46.561Z,99.90
2023-04-29T01:54:50.044Z,99.90
2023-04-29T01:55:52.150Z,99.90
2023-04-29T01:56:54.391Z,99.90
2023-04-29T01:57:56.515Z,99.90
2023-04-29T01:58:58.657Z,99.90
2023-04-29T02:00:02.200Z,99.90
2023-04-29T02:01:04.582Z,99.90
2023-04-29T02:02:06.718Z,99.90
2023-04-29T02:03:08.991Z,99.90
2023-04-29T02:04:11.641Z,99.90
2023-04-29T02:05:13.778Z,99.90
2023-04-29T02:06:16.045Z,99.90
2023-04-29T02:07:18.226Z,99.90
2023-04-29T02:08:20.354Z,99.90
2023-04-29T02:09:22.478Z,99.90
2023-04-29T02:10:26.138Z,99.90
2023-04-29T02:11:28.260Z,99.90
2023-04-29T02:12:30.374Z,99.90
2023-04-29T02:13:32.467Z,99.90
2023-04-29T02:14:37.424Z,99.90
2023-04-29T02:15:40.014Z,99.90
2023-04-29T02:16:45.624Z,99.90
2023-04-29T02:17:47.893Z,99.90
2023-04-29T02:18:50.057Z,99.90
2023-04-29T02:19:52.512Z,99.90
2023-04-29T02:21:01.777Z,99.90
2023-04-29T02:22:03.949Z,99.90
2023-04-29T02:23:06.071Z,99.90
2023-04-29T02:24:08.180Z,99.90
2023-04-29T02:25:11.417Z,99.90
2023-04-29T02:26:15.606Z,99.90
2023-04-29T02:27:18.186Z,99.90
2023-04-29T02:28:20.363Z,99.90
2023-04-29T02:29:22.473Z,99.90
2023-04-29T02:30:24.558Z,99.90
2023-04-29T02:31:27.101Z,99.90
2023-04-29T02:32:29.274Z,99.90
2023-04-29T02:33:31.670Z,99.90
2023-04-29T02:34:33.770Z,99.90
2023-04-29T02:35:36.084Z,99.90
2023-04-29T02:36:38.222Z,99.90
2023-04-29T02:37:40.372Z,99.90
2023-04-29T02:38:42.459Z,99.90
2023-04-29T02:39:44.581Z,99.90
2023-04-29T02:40:47.320Z,99.90
2023-04-29T02:41:53.955Z,99.90
2023-04-29T02:42:56.030Z,99.90
2023-04-29T02:43:58.148Z,99.90
2023-04-29T02:45:01.194Z,99.90
2023-04-29T02:46:03.326Z,99.90
2023-04-29T02:47:05.494Z,99.90
2023-04-29T02:48:08.138Z,99.90
2023-04-29T02:49:10.269Z,99.90
2023-04-29T02:50:12.404Z,99.90
2023-04-29T02:51:14.598Z,99.90
2023-04-29T02:52:17.350Z,99.90
2023-04-29T02:53:20.966Z,99.90
2023-04-29T02:54:23.050Z,99.90
2023-04-29T02:55:25.297Z,99.90
2023-04-29T02:56:27.756Z,99.90
2023-04-29T02:57:32.258Z,99.90
2023-04-29T02:58:34.403Z,99.90
2023-04-29T02:59:36.499Z,99.90
2023-04-29T03:00:40.548Z,99.90
2023-04-29T03:01:43.452Z,99.90
2023-04-29T03:02:45.985Z,99.90
2023-04-29T03:03:49.456Z,99.90
2023-04-29T03:04:52.327Z,99.90
2023-04-29T03:05:54.465Z,99.90
2023-04-29T03:06:57.000Z,99.90
2023-04-29T03:07:59.136Z,99.90
2023-04-29T03:09:01.296Z,99.90
2023-04-29T03:10:03.614Z,99.90
2023-04-29T03:11:05.852Z,99.90
2023-04-29T03:12:08.002Z,99.90
2023-04-29T03:13:11.600Z,99.90
2023-04-29T03:14:13.663Z,99.90
2023-04-29T03:15:15.919Z,99.90
2023-04-29T03:16:18.027Z,99.90
2023-04-29T03:17:20.249Z,99.90
2023-04-29T03:18:22.467Z,99.90
2023-04-29T03:19:24.722Z,99.90
2023-04-29T03:20:26.856Z,99.90
2023-04-29T03:21:29.886Z,99.90
2023-04-29T03:22:32.005Z,99.90
2023-04-29T03:23:34.089Z,99.90
2023-04-29T03:24:36.169Z,99.90
2023-04-29T03:25:38.341Z,99.90
2023-04-29T03:26:40.508Z,99.90
2023-04-29T03:27:43.196Z,99.90
2023-04-29T03:28:46.893Z,99.90
2023-04-29T03:29:49.459Z,99.90
2023-04-29T03:30:51.675Z,99.90
2023-04-29T03:31:54.124Z,99.90
2023-04-29T03:32:56.645Z,99.90
2023-04-29T03:33:58.774Z,99.90
2023-04-29T03:35:00.880Z,99.90
2023-04-29T03:36:03.351Z,99.90
2023-04-29T03:37:06.175Z,99.90
2023-04-29T03:38:08.326Z,99.90
2023-04-29T03:39:11.922Z,99.90
2023-04-29T03:40:14.326Z,99.90
2023-04-29T03:41:16.697Z,99.90
2023-04-29T03:42:18.895Z,99.90
2023-04-29T03:43:21.110Z,99.90
2023-04-29T03:44:24.704Z,99.90
2023-04-29T03:45:26.850Z,99.90
2023-04-29T03:46:29.203Z,99.90
2023-04-29T03:47:31.693Z,99.90
2023-04-29T03:48:33.794Z,99.90
2023-04-29T03:49:35.965Z,99.90
2023-04-29T03:50:38.111Z,99.90
2023-04-29T03:51:40.791Z,99.90
2023-04-29T03:52:42.960Z,99.90
2023-04-29T03:53:45.345Z,99.90
2023-04-29T03:54:47.487Z,99.90
2023-04-29T03:55:49.672Z,99.90
2023-04-29T03:56:51.843Z,99.90
2023-04-29T03:57:53.933Z,99.90
2023-04-29T03:58:56.026Z,99.90
2023-04-29T03:59:59.760Z,99.90
2023-04-29T04:01:01.943Z,99.90
2023-04-29T04:02:04.316Z,99.90
2023-04-29T04:03:06.698Z,99.90
2023-04-29T04:04:09.160Z,99.90
2023-04-29T04:05:11.457Z,99.90
2023-04-29T04:06:13.607Z,99.90
2023-04-29T04:07:15.922Z,99.90
2023-04-29T04:08:18.026Z,99.90
2023-04-29T04:09:20.330Z,99.90
2023-04-29T04:10:22.443Z,99.90
2023-04-29T04:11:24.604Z,99.90
2023-04-29T04:12:26.693Z,99.90
2023-04-29T04:13:28.829Z,99.90
2023-04-29T04:14:31.920Z,99.90
2023-04-29T04:15:36.052Z,99.90
2023-04-29T04:16:38.239Z,99.90
2023-04-29T04:17:40.539Z,99.90
2023-04-29T04:18:42.718Z,99.90
2023-04-29T04:19:44.797Z,99.90
2023-04-29T04:20:47.298Z,99.90
2023-04-29T04:21:49.414Z,99.90
2023-04-29T04:22:51.674Z,99.90
2023-04-29T04:23:53.783Z,99.90
2023-04-29T04:24:55.919Z,99.90
2023-04-29T04:25:58.115Z,99.90
2023-04-29T04:27:01.057Z,99.90
2023-04-29T04:28:03.220Z,99.90
2023-04-29T04:29:05.441Z,99.90
2023-04-29T04:30:08.855Z,99.90
2023-04-29T04:31:14.968Z,99.90
2023-04-29T04:32:17.988Z,99.90
2023-04-29T04:33:20.089Z,99.90
2023-04-29T04:34:22.191Z,99.90
2023-04-29T04:35:24.371Z,99.90
2023-04-29T04:36:26.603Z,99.90
2023-04-29T04:37:28.742Z,99.90
2023-04-29T04:38:32.989Z,99.90
2023-04-29T04:39:35.153Z,99.90
2023-04-29T04:40:37.327Z,99.90
2023-04-29T04:41:39.609Z,99.90
2023-04-29T04:42:41.865Z,99.90
2023-04-29T04:43:44.077Z,99.90
2023-04-29T04:44:46.524Z,99.90
2023-04-29T04:45:48.688Z,99.90
2023-04-29T04:46:52.551Z,99.90
2023-04-29T04:47:54.999Z,99.90
2023-04-29T04:48:57.214Z,99.90
2023-04-29T04:49:59.330Z,99.90
2023-04-29T04:51:08.475Z,99.90
2023-04-29T04:52:11.682Z,99.90
2023-04-29T04:53:13.864Z,99.90
2023-04-29T04:54:15.968Z,99.90
2023-04-29T04:55:18.071Z,99.90
2023-04-29T04:56:20.345Z,99.90
2023-04-29T04:57:22.536Z,99.90
2023-04-29T04:58:26.679Z,99.90
2023-04-29T04:59:28.759Z,99.90
2023-04-29T05:00:31.044Z,99.90
2023-04-29T05:01:33.271Z,99.90
2023-04-29T05:02:37.993Z,99.90
2023-04-29T05:03:40.530Z,99.90
2023-04-29T05:04:42.875Z,99.90
2023-04-29T05:05:45.028Z,99.90
2023-04-29T05:06:47.551Z,99.90
2023-04-29T05:07:49.631Z,99.90
2023-04-29T05:08:51.742Z,99.90
2023-04-29T05:09:54.045Z,99.90
2023-04-29T05:10:56.760Z,99.90
2023-04-29T05:11:59.432Z,99.90
2023-04-29T05:13:01.572Z,99.90
2023-04-29T05:14:03.766Z,99.90
2023-04-29T05:15:06.843Z,99.90
2023-04-29T05:16:08.943Z,99.90
2023-04-29T05:17:11.409Z,99.90
2023-04-29T05:18:14.936Z,99.90
2023-04-29T05:19:17.122Z,99.90
2023-04-29T05:20:20.575Z,99.90
2023-04-29T05:21:22.731Z,99.90
2023-04-29T05:22:25.027Z,99.90
2023-04-29T05:23:27.985Z,99.90
2023-04-29T05:24:30.456Z,99.90
2023-04-29T05:25:32.634Z,99.90
2023-04-29T05:26:34.774Z,99.90
2023-04-29T05:27:36.872Z,99.90
2023-04-29T05:28:38.986Z,99.90
2023-04-29T05:29:41.174Z,99.90
2023-04-29T05:30:43.899Z,99.90
2023-04-29T05:31:46.073Z,99.90
2023-04-29T05:32:49.054Z,99.90
2023-04-29T05:33:52.726Z,99.90
2023-04-29T05:34:55.040Z,99.90
2023-04-29T05:35:57.400Z,99.90
2023-04-29T05:36:59.612Z,99.90
2023-04-29T05:38:01.729Z,99.90
2023-04-29T05:39:03.935Z,99.90
2023-04-29T05:40:07.430Z,99.90
2023-04-29T05:41:09.503Z,99.90
2023-04-29T05:42:11.702Z,99.90
2023-04-29T05:43:13.940Z,99.90
2023-04-29T05:44:16.116Z,99.90
2023-04-29T05:45:18.336Z,99.90
2023-04-29T05:46:20.705Z,99.90
2023-04-29T05:47:22.964Z,99.90
2023-04-29T05:48:25.259Z,99.90
2023-04-29T05:49:28.791Z,99.90
2023-04-29T05:50:30.894Z,99.90
2023-04-29T05:51:33.036Z,99.90
2023-04-29T05:52:35.147Z,99.90
2023-04-29T05:53:38.401Z,99.90
2023-04-29T05:54:40.519Z,99.90
2023-04-29T05:55:45.143Z,99.90
2023-04-29T05:56:47.454Z,99.90
2023-04-29T05:57:49.553Z,99.90
2023-04-29T05:58:52.188Z,99.90
2023-04-29T05:59:57.788Z,99.90
2023-04-29T06:01:00.306Z,99.90
2023-04-29T06:02:03.034Z,99.90
2023-04-29T06:03:05.271Z,99.90
2023-04-29T06:04:08.242Z,99.80
2023-04-29T06:05:12.256Z,99.60
2023-04-29T06:06:14.884Z,99.50
2023-04-29T06:07:19.988Z,99.30
2023-04-29T06:08:22.466Z,99.10
2023-04-29T06:09:28.663Z,98.80
2023-04-29T06:10:30.771Z,98.50
2023-04-29T06:11:32.841Z,97.90
2023-04-29T06:12:35.209Z,97.50
2023-04-29T06:13:37.297Z,97.30
2023-04-29T06:14:39.511Z,97.00
2023-04-29T06:15:41.664Z,96.80
2023-04-29T06:16:44.188Z,96.50
2023-04-29T06:17:46.339Z,96.20
2023-04-29T06:18:48.472Z,96.00
2023-04-29T06:19:50.885Z,95.60
2023-04-29T06:20:54.598Z,95.50
2023-04-29T06:21:57.277Z,95.30
2023-04-29T06:22:59.375Z,95.20
2023-04-29T06:24:01.528Z,95.10
2023-04-29T06:25:03.918Z,94.90
2023-04-29T06:26:06.466Z,94.60
2023-04-29T06:27:08.595Z,94.50
2023-04-29T06:28:10.710Z,94.30
2023-04-29T06:29:12.849Z,94.20
2023-04-29T06:30:14.920Z,94.10
2023-04-29T06:31:17.437Z,93.80
2023-04-29T06:32:19.784Z,93.60
2023-04-29T06:33:22.119Z,93.30
2023-04-29T06:34:24.349Z,93.00
2023-04-29T06:35:26.530Z,92.80
2023-04-29T06:36:30.324Z,92.50
2023-04-29T06:37:32.518Z,92.20
2023-04-29T06:38:35.085Z,92.30
2023-04-29T06:39:37.228Z,92.10
2023-04-29T06:40:39.339Z,92.00
2023-04-29T06:41:41.467Z,91.70
2023-04-29T06:42:43.879Z,91.50
2023-04-29T06:43:48.066Z,91.20
2023-04-29T06:44:51.091Z,91.10
2023-04-29T06:45:53.252Z,90.70
2023-04-29T06:46:55.403Z,90.30
2023-04-29T06:47:57.606Z,90.00
2023-04-29T06:48:59.760Z,89.40
2023-04-29T06:50:02.044Z,88.70
2023-04-29T06:51:04.482Z,87.60
2023-04-29T06:52:08.001Z,86.50
2023-04-29T06:53:10.288Z,85.60
2023-04-29T06:54:12.421Z,84.20
2023-04-29T06:55:14.542Z,83.40
2023-04-29T06:56:17.194Z,82.90
2023-04-29T06:57:20.723Z,82.00
2023-04-29T06:58:22.876Z,80.80
2023-04-29T06:59:25.743Z,80.00
2023-04-29T07:00:27.964Z,79.50
2023-04-29T07:01:30.246Z,79.30
2023-04-29T07:02:32.736Z,78.30
2023-04-29T07:03:35.051Z,77.70
2023-04-29T07:04:38.109Z,77.40
2023-04-29T07:05:41.972Z,77.40
2023-04-29T07:06:47.004Z,77.80
2023-04-29T07:07:50.646Z,77.70
2023-04-29T07:08:54.859Z,77.60
2023-04-29T07:09:58.979Z,77.40
2023-04-29T07:11:01.207Z,77.20
2023-04-29T07:12:08.878Z,77.20
2023-04-29T07:13:30.606Z,76.80
2023-04-29T07:14:42.089Z,76.70
2023-04-29T07:15:56.253Z,76.30
2023-04-29T07:17:08.401Z,76.00
2023-04-29T07:18:16.122Z,74.90
2023-04-29T07:19:28.536Z,74.60
2023-04-29T07:20:37.512Z,74.10
2023-04-29T07:21:45.041Z,72.50
2023-04-29T07:22:49.243Z,72.00
2023-04-29T07:24:00.364Z,71.70
2023-04-29T07:25:03.849Z,71.30
2023-04-29T07:26:18.762Z,70.30
2023-04-29T07:27:21.334Z,68.70
2023-04-29T07:28:32.737Z,67.90
2023-04-29T07:29:38.871Z,68.30
2023-04-29T07:30:49.995Z,67.90
2023-04-29T07:31:54.492Z,67.80
2023-04-29T07:32:56.699Z,66.80
2023-04-29T07:34:02.428Z,66.10
2023-04-29T07:35:11.496Z,66.20
2023-04-29T07:36:13.922Z,66.00
2023-04-29T07:37:16.278Z,65.20
2023-04-29T07:38:27.640Z,63.90
2023-04-29T07:39:36.632Z,62.40
2023-04-29T07:40:38.905Z,62.00
2023-04-29T07:41:46.779Z,62.60
2023-04-29T07:42:49.472Z,62.60
2023-04-29T07:43:52.664Z,61.50
2023-04-29T07:44:55.309Z,61.20
2023-04-29T07:46:02.064Z,61.20
2023-04-29T07:47:04.482Z,60.70
2023-04-29T07:48:07.155Z,60.50
2023-04-29T07:49:09.543Z,59.90
2023-04-29T07:50:13.261Z,59.60
2023-04-29T07:51:18.114Z,60.00
2023-04-29T07:52:29.747Z,60.20
2023-04-29T07:53:33.738Z,59.90
2023-04-29T07:54:37.479Z,59.20
2023-04-29T07:55:39.652Z,59.30
2023-04-29T07:56:42.094Z,58.60
2023-04-29T07:57:44.215Z,57.50
2023-04-29T07:58:46.894Z,55.70
2023-04-29T07:59:53.645Z,54.90
2023-04-29T08:01:06.688Z,54.80
2023-04-29T08:02:12.740Z,54.30
2023-04-29T08:03:15.048Z,54.40
2023-04-29T08:04:29.762Z,54.10
2023-04-29T08:05:34.967Z,52.60
2023-04-29T08:06:44.155Z,52.70
2023-04-29T08:07:56.821Z,52.70
2023-04-29T08:09:10.156Z,52.60
2023-04-29T08:10:18.212Z,52.10
2023-04-29T08:11:24.648Z,51.20
2023-04-29T08:12:32.363Z,50.40
2023-04-29T08:13:39.850Z,50.30
2023-04-29T08:14:44.358Z,50.30
2023-04-29T08:15:59.744Z,50.50
2023-04-29T08:17:13.839Z,49.30
2023-04-29T08:18:20.046Z,49.30
2023-04-29T08:19:27.036Z,49.80
2023-04-29T08:20:32.128Z,49.80
2023-04-29T08:21:44.929Z,49.50
2023-04-29T08:22:49.842Z,49.50
2023-04-29T08:23:53.584Z,49.00
2023-04-29T08:24:56.041Z,48.50
2023-04-29T08:25:59.633Z,48.30
2023-04-29T08:27:01.856Z,48.10
2023-04-29T08:28:04.304Z,47.90
2023-04-29T08:29:06.833Z,47.00
2023-04-29T08:30:10.141Z,47.00
2023-04-29T08:31:17.667Z,46.90
2023-04-29T08:32:20.364Z,46.80
2023-04-29T08:33:22.810Z,47.20
2023-04-29T08:34:24.900Z,47.10
2023-04-29T08:35:27.497Z,45.90
2023-04-29T08:36:30.136Z,45.80
2023-04-29T08:37:32.543Z,46.00
2023-04-29T08:38:34.769Z,45.40
2023-04-29T08:39:37.072Z,45.40
2023-04-29T08:40:43.054Z,45.70
2023-04-29T08:41:51.269Z,45.60
2023-04-29T08:42:54.734Z,45.90
2023-04-29T08:43:58.088Z,45.90
2023-04-29T08:45:01.531Z,45.90
2023-04-29T08:46:07.042Z,46.00
2023-04-29T08:47:10.094Z,45.80
2023-04-29T08:48:12.765Z,46.30
2023-04-29T08:49:15.043Z,46.60
2023-04-29T08:50:18.222Z,46.20
2023-04-29T08:51:20.456Z,46.90
2023-04-29T08:52:22.815Z,47.10
2023-04-29T08:53:25.064Z,46.00
2023-04-29T08:54:28.760Z,45.80
2023-04-29T08:55:31.364Z,45.60
2023-04-29T08:56:34.202Z,45.40
2023-04-29T08:57:39.902Z,44.90
2023-04-29T08:58:43.313Z,44.90
2023-04-29T08:59:45.905Z,45.20
2023-04-29T09:00:48.737Z,45.40
2023-04-29T09:01:53.676Z,45.40
2023-04-29T09:02:57.387Z,45.60
2023-04-29T09:04:10.072Z,45.40
2023-04-29T09:05:12.626Z,45.00
2023-04-29T09:06:15.320Z,45.00
2023-04-29T09:07:18.161Z,45.10
2023-04-29T09:08:22.517Z,45.20
2023-04-29T09:09:25.201Z,45.30
2023-04-29T09:10:27.880Z,45.40
2023-04-29T09:11:30.968Z,45.10
2023-04-29T09:12:33.383Z,44.90
2023-04-29T09:13:37.269Z,44.70
2023-04-29T09:14:39.636Z,44.30
2023-04-29T09:15:42.764Z,44.40
2023-04-29T09:16:48.596Z,44.40
2023-04-29T09:17:51.068Z,44.90
2023-04-29T09:18:54.841Z,44.50
2023-04-29T09:19:57.644Z,43.90
2023-04-29T09:21:04.870Z,44.00
2023-04-29T09:22:08.173Z,43.80
2023-04-29T09:23:11.061Z,43.50
2023-04-29T09:24:26.540Z,42.60
2023-04-29T09:25:36.543Z,42.00
2023-04-29T09:26:43.455Z,42.30
2023-04-29T09:27:45.953Z,42.10
2023-04-29T09:29:07.129Z,42.00
2023-04-29T09:30:10.746Z,42.80
2023-04-29T09:31:17.689Z,43.00
2023-04-29T09:32:23.355Z,42.70
2023-04-29T09:33:28.786Z,42.20
2023-04-29T09:34:32.392Z,42.60
2023-04-29T09:35:35.474Z,42.50
2023-04-29T09:36:44.221Z,42.20
2023-04-29T09:37:46.371Z,42.80
2023-04-29T09:39:03.966Z,43.10
2023-04-29T09:40:16.726Z,42.60
2023-04-29T09:41:20.076Z,42.40
2023-04-29T09:42:22.383Z,42.60
2023-04-29T09:43:24.564Z,42.50
2023-04-29T09:44:32.997Z,42.40
2023-04-29T09:45:37.658Z,42.20
2023-04-29T09:46:40.231Z,42.40
2023-04-29T09:47:42.988Z,42.20
2023-04-29T09:48:46.413Z,40.80
2023-04-29T09:49:50.091Z,40.60
2023-04-29T09:51:04.092Z,41.00
2023-04-29T09:52:08.863Z,41.00
2023-04-29T09:53:12.231Z,41.00
2023-04-29T09:54:21.845Z,41.20
2023-04-29T09:55:24.220Z,41.10
2023-04-29T09:56:30.857Z,40.60
2023-04-29T09:57:44.909Z,40.60
2023-04-29T09:58:47.509Z,40.70
2023-04-29T09:59:51.270Z,40.60
2023-04-29T10:00:53.660Z,41.00
2023-04-29T10:01:57.176Z,41.30
2023-04-29T10:03:01.652Z,41.40
2023-04-29T10:04:06.670Z,41.50
2023-04-29T10:05:11.057Z,42.00
2023-04-29T10:06:14.560Z,42.30
2023-04-29T10:07:18.359Z,41.90
2023-04-29T10:08:21.322Z,41.50
2023-04-29T10:09:24.757Z,40.80
2023-04-29T10:10:31.955Z,40.10
2023-04-29T10:11:35.283Z,40.30
2023-04-29T10:12:41.111Z,40.30
2023-04-29T10:13:44.388Z,40.20
2023-04-29T10:14:55.194Z,39.40
2023-04-29T10:16:01.165Z,38.40
2023-04-29T10:17:09.783Z,38.30
2023-04-29T10:18:19.284Z,39.20
2023-04-29T10:19:27.883Z,39.50
2023-04-29T10:20:30.918Z,39.80
2023-04-29T10:21:33.844Z,39.80
2023-04-29T10:22:44.698Z,38.40
2023-04-29T10:23:48.737Z,37.90
2023-04-29T10:24:53.943Z,37.60
2023-04-29T10:25:57.696Z,37.80
2023-04-29T10:27:03.108Z,37.50
2023-04-29T10:28:07.007Z,37.10
2023-04-29T10:29:11.391Z,36.70
2023-04-29T10:30:16.554Z,36.70
2023-04-29T10:31:21.800Z,36.70
2023-04-29T10:32:25.395Z,36.60
2023-04-29T10:33:30.100Z,36.60
2023-04-29T10:34:33.878Z,36.00
2023-04-29T10:35:37.854Z,36.20
2023-04-29T10:36:40.386Z,36.00
2023-04-29T10:37:43.804Z,35.70
2023-04-29T10:38:52.806Z,35.40
2023-04-29T10:40:05.706Z,34.90
2023-04-29T10:41:15.204Z,34.20
2023-04-29T10:42:26.200Z,34.20
2023-04-29T10:43:28.813Z,34.00
2023-04-29T10:44:31.162Z,34.00
2023-04-29T10:45:40.384Z,34.30
2023-04-29T10:46:43.014Z,34.20
2023-04-29T10:48:10.138Z,34.20
2023-04-29T10:49:12.743Z,33.90
2023-04-29T10:50:17.916Z,33.50
2023-04-29T10:51:31.642Z,33.90
2023-04-29T10:52:52.376Z,34.20
2023-04-29T10:54:08.236Z,34.80
2023-04-29T10:55:12.448Z,34.70
2023-04-29T10:56:14.649Z,34.60
2023-04-29T10:57:25.319Z,34.60
2023-04-29T10:58:47.060Z,34.70
2023-04-29T10:59:49.714Z,35.00
2023-04-29T11:00:53.796Z,34.90
2023-04-29T11:01:57.687Z,33.90
2023-04-29T11:03:03.003Z,33.40
2023-04-29T11:04:09.804Z,33.40
2023-04-29T11:05:12.790Z,33.90
2023-04-29T11:06:18.546Z,34.30
2023-04-29T11:07:38.881Z,34.30
2023-04-29T11:08:46.034Z,34.40
2023-04-29T11:09:51.813Z,34.20
2023-04-29T11:11:07.214Z,34.00
2023-04-29T11:12:12.582Z,34.30
2023-04-29T11:13:26.115Z,34.70
2023-04-29T11:14:31.652Z,34.50
2023-04-29T11:15:35.281Z,34.40
2023-04-29T11:16:46.750Z,34.80
2023-04-29T11:17:49.903Z,35.20
2023-04-29T11:19:06.667Z,34.40
2023-04-29T11:20:13.536Z,32.80
2023-04-29T11:21:19.545Z,32.30
2023-04-29T11:22:26.864Z,32.20
2023-04-29T11:23:29.367Z,32.10
2023-04-29T11:24:33.922Z,31.00
2023-04-29T11:25:37.414Z,31.20
2023-04-29T11:26:44.656Z,31.40
2023-04-29T11:27:49.284Z,31.50
2023-04-29T11:28:53.127Z,32.60
2023-04-29T11:29:58.319Z,33.70
2023-04-29T11:31:00.976Z,34.40
2023-04-29T11:32:04.842Z,35.00
2023-04-29T11:33:09.511Z,35.50
2023-04-29T11:34:11.727Z,35.80
2023-04-29T11:35:15.400Z,36.10
2023-04-29T11:36:17.605Z,36.00
2023-04-29T11:37:21.708Z,36.10
2023-04-29T11:38:27.353Z,35.90
2023-04-29T11:39:36.181Z,35.90
2023-04-29T11:40:43.325Z,35.70
2023-04-29T11:41:46.437Z,35.90
2023-04-29T11:42:51.633Z,35.80
2023-04-29T11:43:57.013Z,36.10
2023-04-29T11:44:59.606Z,36.10
2023-04-29T11:46:02.381Z,35.60
2023-04-29T11:47:09.570Z,35.10
2023-04-29T11:48:19.685Z,35.60
2023-04-29T11:49:30.092Z,35.30
2023-04-29T11:50:35.220Z,34.60
2023-04-29T11:51:39.845Z,34.10
2023-04-29T11:53:00.069Z,33.90
2023-04-29T11:54:18.106Z,33.90
2023-04-29T11:55:45.257Z,34.10
2023-04-29T11:56:50.245Z,33.70
2023-04-29T11:58:03.908Z,32.40
2023-04-29T11:59:08.305Z,31.60
2023-04-29T12:00:15.240Z,32.20
2023-04-29T12:01:22.644Z,31.60
2023-04-29T12:02:39.193Z,31.50
2023-04-29T12:03:44.717Z,30.90
2023-04-29T12:04:50.620Z,31.00
2023-04-29T12:06:01.624Z,30.20
2023-04-29T12:07:15.468Z,30.30
2023-04-29T12:08:39.399Z,30.20
2023-04-29T12:09:54.043Z,30.60
2023-04-29T12:11:00.266Z,30.90
2023-04-29T12:12:02.925Z,32.00
2023-04-29T12:13:05.452Z,32.50
2023-04-29T12:14:07.999Z,33.00
2023-04-29T12:15:11.054Z,33.60
2023-04-29T12:16:13.627Z,34.00
2023-04-29T12:17:17.600Z,34.20
2023-04-29T12:18:23.972Z,33.80
2023-04-29T12:19:26.465Z,33.40
2023-04-29T12:20:29.308Z,33.50
2023-04-29T12:21:32.114Z,33.50
2023-04-29T12:22:34.547Z,32.90
2023-04-29T12:23:38.400Z,32.80
2023-04-29T12:24:41.234Z,32.70
2023-04-29T12:25:49.361Z,32.50
2023-04-29T12:26:54.240Z,32.30
2023-04-29T12:28:00.232Z,32.10
2023-04-29T12:29:02.555Z,32.30
2023-04-29T12:30:09.698Z,32.90
2023-04-29T12:31:12.171Z,33.30
2023-04-29T12:32:18.397Z,33.60
2023-04-29T12:33:23.631Z,33.80
2023-04-29T12:34:26.653Z,34.40
2023-04-29T12:35:28.927Z,35.00
2023-04-29T12:36:32.961Z,35.00
2023-04-29T12:37:35.519Z,34.70
2023-04-29T12:38:37.895Z,34.90
2023-04-29T12:39:41.408Z,35.20
2023-04-29T12:40:45.047Z,35.60
2023-04-29T12:41:47.317Z,35.60
2023-04-29T12:42:49.674Z,35.10
2023-04-29T12:43:52.659Z,33.80
2023-04-29T12:44:55.315Z,33.00
2023-04-29T12:46:02.485Z,31.60
2023-04-29T12:47:09.484Z,31.60
2023-04-29T12:48:22.216Z,31.00
2023-04-29T12:49:34.550Z,31.70
2023-04-29T12:50:38.199Z,33.10
2023-04-29T12:51:40.793Z,32.90
2023-04-29T12:52:42.944Z,32.40
2023-04-29T12:53:45.107Z,33.10
2023-04-29T12:54:47.290Z,32.80
2023-04-29T12:55:52.383Z,32.60
2023-04-29T12:56:54.794Z,33.10
2023-04-29T12:57:58.056Z,32.70
2023-04-29T12:59:08.866Z,33.00
2023-04-29T13:00:12.384Z,32.30
2023-04-29T13:01:17.724Z,31.90
2023-04-29T13:02:20.946Z,30.80
2023-04-29T13:03:23.977Z,31.20
2023-04-29T13:04:26.505Z,30.90
2023-04-29T13:05:30.236Z,30.30
2023-04-29T13:06:33.033Z,30.00
2023-04-29T13:07:36.965Z,29.90
2023-04-29T13:08:40.126Z,29.60
2023-04-29T13:09:42.421Z,29.40
2023-04-29T13:10:44.681Z,30.70
2023-04-29T13:11:47.296Z,30.30
2023-04-29T13:12:49.542Z,30.00
2023-04-29T13:13:51.716Z,29.70
2023-04-29T13:14:57.759Z,30.30
2023-04-29T13:16:00.551Z,30.60
2023-04-29T13:17:04.209Z,31.40
2023-04-29T13:18:06.597Z,31.70
2023-04-29T13:19:24.692Z,32.30
2023-04-29T13:20:33.255Z,32.80
2023-04-29T13:21:35.459Z,32.20
2023-04-29T13:22:38.181Z,33.30
2023-04-29T13:23:41.134Z,33.90
2023-04-29T13:24:43.334Z,33.30
2023-04-29T13:25:45.860Z,33.50
2023-04-29T13:26:50.948Z,33.70
2023-04-29T13:27:54.938Z,33.90
2023-04-29T13:28:57.303Z,33.40
2023-04-29T13:29:59.564Z,32.30
2023-04-29T13:31:01.678Z,31.80
2023-04-29T13:32:04.137Z,30.80
2023-04-29T13:33:12.163Z,30.60
2023-04-29T13:34:15.359Z,30.20
2023-04-29T13:35:17.734Z,30.30
2023-04-29T13:36:21.377Z,30.70
2023-04-29T13:37:23.596Z,31.10
2023-04-29T13:38:25.899Z,31.50
2023-04-29T13:39:28.069Z,31.60
2023-04-29T13:40:31.103Z,32.30
2023-04-29T13:41:35.710Z,32.50
2023-04-29T13:42:45.269Z,32.60
2023-04-29T13:43:51.552Z,32.40
2023-04-29T13:44:57.403Z,32.70
2023-04-29T13:45:59.624Z,32.80
2023-04-29T13:47:03.842Z,32.20
2023-04-29T13:48:20.856Z,31.80
2023-04-29T13:50:01.956Z,32.00
2023-04-29T13:52:27.317Z,32.40
2023-04-29T13:53:50.856Z,31.90